sensor_id;sensor_type;location;lat;lon;timestamp;P1;durP1;ratioP1;P2;durP2;ratioP2
16031;SDS011;8120;48.308;8.914;2023-04-06T00:01:48;6.80;;;3.97;;
16031;SDS011;8120;48.308;8.914;2023-04-06T00:04:16;6.13;;;4.27;;
16031;SDS011;8120;48.308;8.914;2023-04-06T00:06:44;7.90;;;4.80;;
16031;SDS011;8120;48.308;8.914;2023-04-06T00:09:13;6.23;;;4.40;;
16031;SDS011;8120;48.308;8.914;2023-04-06T00:11:41;5.97;;;4.20;;
16031;SDS011;8120;48.308;8.914;2023-04-06T00:14:08;8.00;;;4.97;;
16031;SDS011;8120;48.308;8.914;2023-04-06T00:16:36;9.10;;;4.87;;
16031;SDS011;8120;48.308;8.914;2023-04-06T00:19:04;7.70;;;4.67;;
16031;SDS011;8120;48.308;8.914;2023-04-06T00:21:32;7.83;;;5.00;;
16031;SDS011;8120;48.308;8.914;2023-04-06T00:24:00;8.00;;;5.50;;
16031;SDS011;8120;48.308;8.914;2023-04-06T00:26:31;7.50;;;4.80;;
16031;SDS011;8120;48.308;8.914;2023-04-06T00:28:59;7.23;;;4.87;;
16031;SDS011;8120;48.308;8.914;2023-04-06T00:31:27;8.67;;;5.70;;
16031;SDS011;8120;48.308;8.914;2023-04-06T00:33:54;7.07;;;4.93;;
16031;SDS011;8120;48.308;8.914;2023-04-06T00:36:22;6.93;;;4.63;;
16031;SDS011;8120;48.308;8.914;2023-04-06T00:38:51;8.83;;;5.00;;
16031;SDS011;8120;48.308;8.914;2023-04-06T00:41:19;8.53;;;5.57;;
16031;SDS011;8120;48.308;8.914;2023-04-06T00:43:48;10.00;;;5.47;;
16031;SDS011;8120;48.308;8.914;2023-04-06T00:46:16;7.73;;;5.13;;
16031;SDS011;8120;48.308;8.914;2023-04-06T00:48:44;8.03;;;5.20;;
16031;SDS011;8120;48.308;8.914;2023-04-06T00:51:12;8.50;;;4.93;;
16031;SDS011;8120;48.308;8.914;2023-04-06T00:53:40;8.00;;;5.43;;
16031;SDS011;8120;48.308;8.914;2023-04-06T00:56:08;8.77;;;5.03;;
16031;SDS011;8120;48.308;8.914;2023-04-06T00:58:36;6.23;;;4.17;;
16031;SDS011;8120;48.308;8.914;2023-04-06T01:01:06;6.67;;;4.30;;
16031;SDS011;8120;48.308;8.914;2023-04-06T01:03:34;7.87;;;5.00;;
16031;SDS011;8120;48.308;8.914;2023-04-06T01:06:02;8.23;;;5.10;;
16031;SDS011;8120;48.308;8.914;2023-04-06T01:08:30;8.23;;;5.40;;
16031;SDS011;8120;48.308;8.914;2023-04-06T01:10:58;10.47;;;5.50;;
16031;SDS011;8120;48.308;8.914;2023-04-06T01:13:27;7.80;;;4.80;;
16031;SDS011;8120;48.308;8.914;2023-04-06T01:15:55;9.10;;;6.00;;
16031;SDS011;8120;48.308;8.914;2023-04-06T01:18:26;6.77;;;5.03;;
16031;SDS011;8120;48.308;8.914;2023-04-06T01:20:55;10.43;;;5.67;;
16031;SDS011;8120;48.308;8.914;2023-04-06T01:23:24;8.67;;;5.20;;
16031;SDS011;8120;48.308;8.914;2023-04-06T01:25:52;6.67;;;5.20;;
16031;SDS011;8120;48.308;8.914;2023-04-06T01:28:20;8.37;;;5.57;;
16031;SDS011;8120;48.308;8.914;2023-04-06T01:30:47;9.50;;;5.60;;
16031;SDS011;8120;48.308;8.914;2023-04-06T01:33:15;9.27;;;5.47;;
16031;SDS011;8120;48.308;8.914;2023-04-06T01:35:43;7.70;;;4.60;;
16031;SDS011;8120;48.308;8.914;2023-04-06T01:38:11;10.07;;;5.73;;
16031;SDS011;8120;48.308;8.914;2023-04-06T01:40:40;7.10;;;4.83;;
16031;SDS011;8120;48.308;8.914;2023-04-06T01:43:08;7.90;;;5.13;;
16031;SDS011;8120;48.308;8.914;2023-04-06T01:45:36;10.53;;;6.00;;
16031;SDS011;8120;48.308;8.914;2023-04-06T01:48:04;8.87;;;5.30;;
16031;SDS011;8120;48.308;8.914;2023-04-06T01:50:32;10.83;;;6.30;;
16031;SDS011;8120;48.308;8.914;2023-04-06T01:53:00;9.57;;;5.97;;
16031;SDS011;8120;48.308;8.914;2023-04-06T01:55:28;9.03;;;5.87;;
16031;SDS011;8120;48.308;8.914;2023-04-06T01:57:57;7.60;;;5.40;;
16031;SDS011;8120;48.308;8.914;2023-04-06T02:00:25;11.53;;;6.43;;
16031;SDS011;8120;48.308;8.914;2023-04-06T02:02:53;9.40;;;5.37;;
16031;SDS011;8120;48.308;8.914;2023-04-06T02:05:21;8.07;;;5.00;;
16031;SDS011;8120;48.308;8.914;2023-04-06T02:07:49;9.40;;;6.03;;
16031;SDS011;8120;48.308;8.914;2023-04-06T02:10:17;9.10;;;5.53;;
16031;SDS011;8120;48.308;8.914;2023-04-06T02:12:45;11.13;;;4.93;;
16031;SDS011;8120;48.308;8.914;2023-04-06T02:15:15;8.57;;;5.07;;
16031;SDS011;8120;48.308;8.914;2023-04-06T02:17:43;8.60;;;5.53;;
16031;SDS011;8120;48.308;8.914;2023-04-06T02:20:11;8.33;;;5.07;;
16031;SDS011;8120;48.308;8.914;2023-04-06T02:22:38;7.73;;;4.60;;
16031;SDS011;8120;48.308;8.914;2023-04-06T02:25:07;7.37;;;4.60;;
16031;SDS011;8120;48.308;8.914;2023-04-06T02:27:35;6.67;;;4.70;;
16031;SDS011;8120;48.308;8.914;2023-04-06T02:30:04;6.83;;;4.50;;
16031;SDS011;8120;48.308;8.914;2023-04-06T02:32:34;7.33;;;4.50;;
16031;SDS011;8120;48.308;8.914;2023-04-06T02:35:02;7.03;;;4.73;;
16031;SDS011;8120;48.308;8.914;2023-04-06T02:37:29;10.03;;;5.43;;
16031;SDS011;8120;48.308;8.914;2023-04-06T02:39:57;9.33;;;5.30;;
16031;SDS011;8120;48.308;8.914;2023-04-06T02:42:25;9.97;;;5.03;;
16031;SDS011;8120;48.308;8.914;2023-04-06T02:44:53;9.83;;;5.37;;
16031;SDS011;8120;48.308;8.914;2023-04-06T02:47:21;13.30;;;6.93;;
16031;SDS011;8120;48.308;8.914;2023-04-06T02:49:50;8.53;;;5.60;;
16031;SDS011;8120;48.308;8.914;2023-04-06T02:52:18;7.27;;;5.13;;
16031;SDS011;8120;48.308;8.914;2023-04-06T02:54:46;8.17;;;4.77;;
16031;SDS011;8120;48.308;8.914;2023-04-06T02:57:13;6.07;;;4.23;;
16031;SDS011;8120;48.308;8.914;2023-04-06T02:59:41;7.77;;;4.97;;
16031;SDS011;8120;48.308;8.914;2023-04-06T03:02:09;8.20;;;4.90;;
16031;SDS011;8120;48.308;8.914;2023-04-06T03:04:37;9.83;;;5.07;;
16031;SDS011;8120;48.308;8.914;2023-04-06T03:07:06;11.17;;;4.73;;
16031;SDS011;8120;48.308;8.914;2023-04-06T03:09:36;10.73;;;5.53;;
16031;SDS011;8120;48.308;8.914;2023-04-06T03:12:04;7.53;;;4.90;;
16031;SDS011;8120;48.308;8.914;2023-04-06T03:14:35;7.93;;;5.00;;
16031;SDS011;8120;48.308;8.914;2023-04-06T03:17:03;7.20;;;5.23;;
16031;SDS011;8120;48.308;8.914;2023-04-06T03:19:31;9.60;;;5.83;;
16031;SDS011;8120;48.308;8.914;2023-04-06T03:21:58;11.30;;;6.50;;
16031;SDS011;8120;48.308;8.914;2023-04-06T03:24:27;6.93;;;4.73;;
16031;SDS011;8120;48.308;8.914;2023-04-06T03:26:55;9.80;;;5.03;;
16031;SDS011;8120;48.308;8.914;2023-04-06T03:29:23;8.00;;;4.77;;
16031;SDS011;8120;48.308;8.914;2023-04-06T03:31:51;8.30;;;4.90;;
16031;SDS011;8120;48.308;8.914;2023-04-06T03:34:19;7.77;;;5.50;;
16031;SDS011;8120;48.308;8.914;2023-04-06T03:36:47;8.27;;;5.17;;
16031;SDS011;8120;48.308;8.914;2023-04-06T03:39:33;6.80;;;5.00;;
16031;SDS011;8120;48.308;8.914;2023-04-06T03:42:10;8.93;;;6.03;;
16031;SDS011;8120;48.308;8.914;2023-04-06T03:44:38;8.20;;;5.20;;
16031;SDS011;8120;48.308;8.914;2023-04-06T03:47:06;14.43;;;5.40;;
16031;SDS011;8120;48.308;8.914;2023-04-06T03:49:34;12.10;;;7.97;;
16031;SDS011;8120;48.308;8.914;2023-04-06T03:52:04;10.00;;;5.67;;
16031;SDS011;8120;48.308;8.914;2023-04-06T03:54:33;10.93;;;5.90;;
16031;SDS011;8120;48.308;8.914;2023-04-06T03:57:01;11.63;;;7.23;;
16031;SDS011;8120;48.308;8.914;2023-04-06T03:59:29;11.27;;;6.20;;
16031;SDS011;8120;48.308;8.914;2023-04-06T04:01:57;10.33;;;7.00;;
16031;SDS011;8120;48.308;8.914;2023-04-06T04:04:25;8.90;;;5.43;;
16031;SDS011;8120;48.308;8.914;2023-04-06T04:06:53;11.80;;;7.03;;
16031;SDS011;8120;48.308;8.914;2023-04-06T04:09:20;11.33;;;7.53;;
16031;SDS011;8120;48.308;8.914;2023-04-06T04:11:49;10.50;;;6.43;;
16031;SDS011;8120;48.308;8.914;2023-04-06T04:14:17;9.67;;;6.00;;
16031;SDS011;8120;48.308;8.914;2023-04-06T04:16:46;11.17;;;6.27;;
16031;SDS011;8120;48.308;8.914;2023-04-06T04:19:14;13.57;;;7.27;;
16031;SDS011;8120;48.308;8.914;2023-04-06T04:21:42;15.17;;;8.67;;
16031;SDS011;8120;48.308;8.914;2023-04-06T04:24:11;12.93;;;7.30;;
16031;SDS011;8120;48.308;8.914;2023-04-06T04:26:39;18.87;;;7.40;;
16031;SDS011;8120;48.308;8.914;2023-04-06T04:29:09;8.73;;;5.00;;
16031;SDS011;8120;48.308;8.914;2023-04-06T04:31:37;8.87;;;5.23;;
16031;SDS011;8120;48.308;8.914;2023-04-06T04:34:04;9.67;;;5.10;;
16031;SDS011;8120;48.308;8.914;2023-04-06T04:36:34;9.83;;;6.17;;
16031;SDS011;8120;48.308;8.914;2023-04-06T04:39:01;19.93;;;10.97;;
16031;SDS011;8120;48.308;8.914;2023-04-06T04:41:29;16.77;;;10.07;;
16031;SDS011;8120;48.308;8.914;2023-04-06T04:43:57;15.60;;;9.57;;
16031;SDS011;8120;48.308;8.914;2023-04-06T04:46:26;14.33;;;8.00;;
16031;SDS011;8120;48.308;8.914;2023-04-06T04:48:54;13.47;;;8.80;;
16031;SDS011;8120;48.308;8.914;2023-04-06T04:51:22;13.37;;;8.20;;
16031;SDS011;8120;48.308;8.914;2023-04-06T04:53:51;11.33;;;7.40;;
16031;SDS011;8120;48.308;8.914;2023-04-06T04:56:19;10.53;;;7.30;;
16031;SDS011;8120;48.308;8.914;2023-04-06T04:58:46;10.20;;;6.97;;
16031;SDS011;8120;48.308;8.914;2023-04-06T05:01:14;13.47;;;7.30;;
16031;SDS011;8120;48.308;8.914;2023-04-06T05:03:44;13.10;;;7.03;;
16031;SDS011;8120;48.308;8.914;2023-04-06T05:06:11;12.67;;;8.03;;
16031;SDS011;8120;48.308;8.914;2023-04-06T05:08:40;10.93;;;6.53;;
16031;SDS011;8120;48.308;8.914;2023-04-06T05:11:08;9.90;;;6.37;;
16031;SDS011;8120;48.308;8.914;2023-04-06T05:13:36;10.60;;;6.23;;
16031;SDS011;8120;48.308;8.914;2023-04-06T05:16:04;9.93;;;6.30;;
16031;SDS011;8120;48.308;8.914;2023-04-06T05:18:32;16.23;;;8.87;;
16031;SDS011;8120;48.308;8.914;2023-04-06T05:21:01;34.83;;;21.63;;
16031;SDS011;8120;48.308;8.914;2023-04-06T05:23:29;46.57;;;27.67;;
16031;SDS011;8120;48.308;8.914;2023-04-06T05:25:57;33.50;;;20.87;;
16031;SDS011;8120;48.308;8.914;2023-04-06T05:28:25;27.93;;;17.30;;
16031;SDS011;8120;48.308;8.914;2023-04-06T05:30:53;29.30;;;18.80;;
16031;SDS011;8120;48.308;8.914;2023-04-06T05:33:21;31.43;;;18.90;;
16031;SDS011;8120;48.308;8.914;2023-04-06T05:35:49;21.43;;;12.43;;
16031;SDS011;8120;48.308;8.914;2023-04-06T05:38:18;15.27;;;8.40;;
16031;SDS011;8120;48.308;8.914;2023-04-06T05:40:46;10.37;;;5.77;;
16031;SDS011;8120;48.308;8.914;2023-04-06T05:43:14;11.27;;;6.80;;
16031;SDS011;8120;48.308;8.914;2023-04-06T05:45:43;12.57;;;6.50;;
16031;SDS011;8120;48.308;8.914;2023-04-06T05:48:11;11.80;;;6.77;;
16031;SDS011;8120;48.308;8.914;2023-04-06T05:50:39;11.93;;;7.63;;
16031;SDS011;8120;48.308;8.914;2023-04-06T05:53:07;11.50;;;7.73;;
16031;SDS011;8120;48.308;8.914;2023-04-06T05:55:36;9.93;;;7.07;;
16031;SDS011;8120;48.308;8.914;2023-04-06T05:58:04;12.50;;;7.70;;
16031;SDS011;8120;48.308;8.914;2023-04-06T06:00:34;17.10;;;10.27;;
16031;SDS011;8120;48.308;8.914;2023-04-06T06:03:02;19.37;;;9.73;;
16031;SDS011;8120;48.308;8.914;2023-04-06T06:05:32;13.20;;;10.00;;
16031;SDS011;8120;48.308;8.914;2023-04-06T06:08:00;12.30;;;8.33;;
16031;SDS011;8120;48.308;8.914;2023-04-06T06:10:28;15.10;;;11.40;;
16031;SDS011;8120;48.308;8.914;2023-04-06T06:12:57;13.00;;;8.43;;
16031;SDS011;8120;48.308;8.914;2023-04-06T06:15:25;9.83;;;7.50;;
16031;SDS011;8120;48.308;8.914;2023-04-06T06:17:53;11.33;;;7.27;;
16031;SDS011;8120;48.308;8.914;2023-04-06T06:20:21;10.53;;;7.43;;
16031;SDS011;8120;48.308;8.914;2023-04-06T06:22:49;12.23;;;7.40;;
16031;SDS011;8120;48.308;8.914;2023-04-06T06:25:16;12.97;;;9.77;;
16031;SDS011;8120;48.308;8.914;2023-04-06T06:27:44;20.73;;;14.93;;
16031;SDS011;8120;48.308;8.914;2023-04-06T06:30:14;24.47;;;16.70;;
16031;SDS011;8120;48.308;8.914;2023-04-06T06:32:42;19.77;;;13.63;;
16031;SDS011;8120;48.308;8.914;2023-04-06T06:35:09;18.93;;;12.77;;
16031;SDS011;8120;48.308;8.914;2023-04-06T06:37:38;20.00;;;11.60;;
16031;SDS011;8120;48.308;8.914;2023-04-06T06:40:06;32.87;;;13.13;;
16031;SDS011;8120;48.308;8.914;2023-04-06T06:42:35;22.67;;;11.77;;
16031;SDS011;8120;48.308;8.914;2023-04-06T06:45:04;17.00;;;10.27;;
16031;SDS011;8120;48.308;8.914;2023-04-06T06:47:34;18.80;;;11.37;;
16031;SDS011;8120;48.308;8.914;2023-04-06T06:50:02;16.87;;;10.70;;
16031;SDS011;8120;48.308;8.914;2023-04-06T06:52:30;19.50;;;10.93;;
16031;SDS011;8120;48.308;8.914;2023-04-06T06:54:58;17.67;;;10.63;;
16031;SDS011;8120;48.308;8.914;2023-04-06T06:57:26;16.90;;;11.70;;
16031;SDS011;8120;48.308;8.914;2023-04-06T06:59:54;13.10;;;8.90;;
16031;SDS011;8120;48.308;8.914;2023-04-06T07:02:22;13.50;;;9.07;;
16031;SDS011;8120;48.308;8.914;2023-04-06T07:04:52;13.90;;;8.90;;
16031;SDS011;8120;48.308;8.914;2023-04-06T07:07:20;13.33;;;8.60;;
16031;SDS011;8120;48.308;8.914;2023-04-06T07:09:47;11.47;;;7.83;;
16031;SDS011;8120;48.308;8.914;2023-04-06T07:12:15;13.77;;;8.50;;
16031;SDS011;8120;48.308;8.914;2023-04-06T07:14:43;12.23;;;8.17;;
16031;SDS011;8120;48.308;8.914;2023-04-06T07:17:11;13.60;;;8.13;;
16031;SDS011;8120;48.308;8.914;2023-04-06T07:19:39;12.00;;;8.17;;
16031;SDS011;8120;48.308;8.914;2023-04-06T07:22:08;12.77;;;8.33;;
16031;SDS011;8120;48.308;8.914;2023-04-06T07:24:36;12.47;;;8.40;;
16031;SDS011;8120;48.308;8.914;2023-04-06T07:27:04;11.90;;;8.07;;
16031;SDS011;8120;48.308;8.914;2023-04-06T07:29:32;12.67;;;8.40;;
16031;SDS011;8120;48.308;8.914;2023-04-06T07:32:00;12.80;;;8.63;;
16031;SDS011;8120;48.308;8.914;2023-04-06T07:34:28;12.40;;;8.43;;
16031;SDS011;8120;48.308;8.914;2023-04-06T07:36:56;12.57;;;8.67;;
16031;SDS011;8120;48.308;8.914;2023-04-06T07:39:27;11.93;;;8.13;;
16031;SDS011;8120;48.308;8.914;2023-04-06T07:41:55;12.13;;;8.50;;
16031;SDS011;8120;48.308;8.914;2023-04-06T07:44:23;13.23;;;8.07;;
16031;SDS011;8120;48.308;8.914;2023-04-06T07:46:51;12.93;;;8.80;;
16031;SDS011;8120;48.308;8.914;2023-04-06T07:49:19;11.50;;;8.63;;
16031;SDS011;8120;48.308;8.914;2023-04-06T07:51:47;12.80;;;7.73;;
16031;SDS011;8120;48.308;8.914;2023-04-06T07:54:15;11.40;;;7.60;;
16031;SDS011;8120;48.308;8.914;2023-04-06T07:56:44;11.80;;;7.73;;
16031;SDS011;8120;48.308;8.914;2023-04-06T07:59:12;10.83;;;8.07;;
16031;SDS011;8120;48.308;8.914;2023-04-06T08:01:40;8.80;;;6.20;;
16031;SDS011;8120;48.308;8.914;2023-04-06T08:04:08;10.90;;;6.17;;
16031;SDS011;8120;48.308;8.914;2023-04-06T08:06:36;14.60;;;7.20;;
16031;SDS011;8120;48.308;8.914;2023-04-06T08:09:04;10.33;;;5.93;;
16031;SDS011;8120;48.308;8.914;2023-04-06T08:11:32;9.40;;;6.10;;
16031;SDS011;8120;48.308;8.914;2023-04-06T08:14:01;9.00;;;5.80;;
16031;SDS011;8120;48.308;8.914;2023-04-06T08:16:29;8.80;;;6.50;;
16031;SDS011;8120;48.308;8.914;2023-04-06T08:18:56;8.83;;;5.23;;
16031;SDS011;8120;48.308;8.914;2023-04-06T08:21:24;10.57;;;5.57;;
16031;SDS011;8120;48.308;8.914;2023-04-06T08:23:52;8.97;;;5.40;;
16031;SDS011;8120;48.308;8.914;2023-04-06T08:26:20;9.77;;;5.73;;
16031;SDS011;8120;48.308;8.914;2023-04-06T08:28:48;8.87;;;5.37;;
16031;SDS011;8120;48.308;8.914;2023-04-06T08:31:17;9.17;;;6.13;;
16031;SDS011;8120;48.308;8.914;2023-04-06T08:33:45;10.67;;;6.47;;
16031;SDS011;8120;48.308;8.914;2023-04-06T08:36:13;9.33;;;6.53;;
16031;SDS011;8120;48.308;8.914;2023-04-06T08:38:43;9.40;;;6.20;;
16031;SDS011;8120;48.308;8.914;2023-04-06T08:41:12;9.50;;;6.17;;
16031;SDS011;8120;48.308;8.914;2023-04-06T08:43:42;10.90;;;6.40;;
16031;SDS011;8120;48.308;8.914;2023-04-06T08:46:11;9.17;;;5.60;;
16031;SDS011;8120;48.308;8.914;2023-04-06T08:48:41;7.63;;;5.30;;
16031;SDS011;8120;48.308;8.914;2023-04-06T08:51:10;8.47;;;4.90;;
16031;SDS011;8120;48.308;8.914;2023-04-06T08:53:38;9.07;;;5.80;;
16031;SDS011;8120;48.308;8.914;2023-04-06T08:56:06;10.60;;;5.43;;
16031;SDS011;8120;48.308;8.914;2023-04-06T08:58:37;6.33;;;3.77;;
16031;SDS011;8120;48.308;8.914;2023-04-06T09:01:07;5.40;;;4.10;;
16031;SDS011;8120;48.308;8.914;2023-04-06T09:03:39;6.17;;;4.20;;
16031;SDS011;8120;48.308;8.914;2023-04-06T09:06:09;8.37;;;5.23;;
16031;SDS011;8120;48.308;8.914;2023-04-06T09:08:38;7.43;;;4.60;;
16031;SDS011;8120;48.308;8.914;2023-04-06T09:11:08;7.90;;;4.97;;
16031;SDS011;8120;48.308;8.914;2023-04-06T09:13:46;7.27;;;5.00;;
16031;SDS011;8120;48.308;8.914;2023-04-06T09:16:15;9.13;;;4.97;;
16031;SDS011;8120;48.308;8.914;2023-04-06T09:18:45;6.57;;;4.53;;
16031;SDS011;8120;48.308;8.914;2023-04-06T09:21:16;8.33;;;5.07;;
16031;SDS011;8120;48.308;8.914;2023-04-06T09:23:46;8.30;;;4.90;;
16031;SDS011;8120;48.308;8.914;2023-04-06T09:26:15;7.67;;;4.97;;
16031;SDS011;8120;48.308;8.914;2023-04-06T09:28:44;6.70;;;4.80;;
16031;SDS011;8120;48.308;8.914;2023-04-06T09:31:14;8.23;;;4.77;;
16031;SDS011;8120;48.308;8.914;2023-04-06T09:33:45;7.70;;;4.60;;
16031;SDS011;8120;48.308;8.914;2023-04-06T09:36:13;9.40;;;5.20;;
16031;SDS011;8120;48.308;8.914;2023-04-06T09:38:51;7.43;;;4.87;;
16031;SDS011;8120;48.308;8.914;2023-04-06T09:41:21;7.60;;;4.90;;
16031;SDS011;8120;48.308;8.914;2023-04-06T09:43:50;7.93;;;4.80;;
16031;SDS011;8120;48.308;8.914;2023-04-06T09:46:20;7.73;;;4.60;;
16031;SDS011;8120;48.308;8.914;2023-04-06T09:48:51;6.47;;;4.07;;
16031;SDS011;8120;48.308;8.914;2023-04-06T09:51:20;11.30;;;6.77;;
16031;SDS011;8120;48.308;8.914;2023-04-06T09:53:50;7.00;;;4.20;;
16031;SDS011;8120;48.308;8.914;2023-04-06T09:56:20;7.63;;;4.13;;
16031;SDS011;8120;48.308;8.914;2023-04-06T09:58:52;7.33;;;4.37;;
16031;SDS011;8120;48.308;8.914;2023-04-06T10:01:26;6.93;;;4.00;;
16031;SDS011;8120;48.308;8.914;2023-04-06T10:04:01;6.83;;;4.37;;
16031;SDS011;8120;48.308;8.914;2023-04-06T10:06:39;7.10;;;4.33;;
16031;SDS011;8120;48.308;8.914;2023-04-06T10:09:07;7.73;;;4.57;;
16031;SDS011;8120;48.308;8.914;2023-04-06T10:11:35;7.60;;;4.37;;
16031;SDS011;8120;48.308;8.914;2023-04-06T10:14:03;6.87;;;4.53;;
16031;SDS011;8120;48.308;8.914;2023-04-06T10:16:32;6.77;;;4.57;;
16031;SDS011;8120;48.308;8.914;2023-04-06T10:19:02;5.80;;;3.60;;
16031;SDS011;8120;48.308;8.914;2023-04-06T10:21:37;10.70;;;3.60;;
16031;SDS011;8120;48.308;8.914;2023-04-06T10:24:07;7.03;;;4.17;;
16031;SDS011;8120;48.308;8.914;2023-04-06T10:26:38;7.13;;;4.03;;
16031;SDS011;8120;48.308;8.914;2023-04-06T10:29:06;6.37;;;4.17;;
16031;SDS011;8120;48.308;8.914;2023-04-06T10:31:39;5.80;;;3.70;;
16031;SDS011;8120;48.308;8.914;2023-04-06T10:34:10;6.27;;;4.07;;
16031;SDS011;8120;48.308;8.914;2023-04-06T10:36:38;6.80;;;3.50;;
16031;SDS011;8120;48.308;8.914;2023-04-06T10:39:06;5.67;;;3.67;;
16031;SDS011;8120;48.308;8.914;2023-04-06T10:41:35;5.43;;;3.77;;
16031;SDS011;8120;48.308;8.914;2023-04-06T10:44:03;11.20;;;9.47;;
16031;SDS011;8120;48.308;8.914;2023-04-06T10:46:32;6.87;;;5.13;;
16031;SDS011;8120;48.308;8.914;2023-04-06T10:49:11;6.63;;;4.07;;
16031;SDS011;8120;48.308;8.914;2023-04-06T10:51:39;6.50;;;4.93;;
16031;SDS011;8120;48.308;8.914;2023-04-06T10:54:07;7.30;;;4.00;;
16031;SDS011;8120;48.308;8.914;2023-04-06T10:56:36;6.23;;;3.97;;
16031;SDS011;8120;48.308;8.914;2023-04-06T10:59:05;6.13;;;3.93;;
16031;SDS011;8120;48.308;8.914;2023-04-06T11:01:33;6.50;;;4.00;;
16031;SDS011;8120;48.308;8.914;2023-04-06T11:04:01;6.13;;;3.87;;
16031;SDS011;8120;48.308;8.914;2023-04-06T11:06:31;6.40;;;3.43;;
16031;SDS011;8120;48.308;8.914;2023-04-06T11:08:59;6.97;;;3.90;;
16031;SDS011;8120;48.308;8.914;2023-04-06T11:11:27;5.17;;;3.57;;
16031;SDS011;8120;48.308;8.914;2023-04-06T11:13:56;6.03;;;4.10;;
16031;SDS011;8120;48.308;8.914;2023-04-06T11:16:25;7.20;;;4.00;;
16031;SDS011;8120;48.308;8.914;2023-04-06T11:18:55;7.03;;;3.63;;
16031;SDS011;8120;48.308;8.914;2023-04-06T11:21:34;6.67;;;3.67;;
16031;SDS011;8120;48.308;8.914;2023-04-06T11:24:06;7.87;;;3.70;;
16031;SDS011;8120;48.308;8.914;2023-04-06T11:26:39;5.90;;;3.70;;
16031;SDS011;8120;48.308;8.914;2023-04-06T11:29:07;5.57;;;3.87;;
16031;SDS011;8120;48.308;8.914;2023-04-06T11:31:45;5.90;;;3.73;;
16031;SDS011;8120;48.308;8.914;2023-04-06T11:34:16;7.20;;;4.10;;
16031;SDS011;8120;48.308;8.914;2023-04-06T11:36:46;6.17;;;4.10;;
16031;SDS011;8120;48.308;8.914;2023-04-06T11:39:18;6.67;;;4.67;;
16031;SDS011;8120;48.308;8.914;2023-04-06T11:41:47;6.23;;;3.60;;
16031;SDS011;8120;48.308;8.914;2023-04-06T11:44:15;6.30;;;3.90;;
16031;SDS011;8120;48.308;8.914;2023-04-06T11:46:56;7.10;;;4.23;;
16031;SDS011;8120;48.308;8.914;2023-04-06T11:49:26;10.50;;;6.33;;
16031;SDS011;8120;48.308;8.914;2023-04-06T11:51:55;8.30;;;4.80;;
16031;SDS011;8120;48.308;8.914;2023-04-06T11:54:30;6.50;;;4.10;;
16031;SDS011;8120;48.308;8.914;2023-04-06T11:56:59;6.30;;;4.40;;
16031;SDS011;8120;48.308;8.914;2023-04-06T11:59:27;6.83;;;4.40;;
16031;SDS011;8120;48.308;8.914;2023-04-06T12:01:57;6.97;;;4.57;;
16031;SDS011;8120;48.308;8.914;2023-04-06T12:04:24;6.80;;;4.23;;
16031;SDS011;8120;48.308;8.914;2023-04-06T12:06:52;6.70;;;4.40;;
16031;SDS011;8120;48.308;8.914;2023-04-06T12:09:22;8.10;;;4.90;;
16031;SDS011;8120;48.308;8.914;2023-04-06T12:11:50;8.47;;;4.83;;
16031;SDS011;8120;48.308;8.914;2023-04-06T12:14:18;7.07;;;4.60;;
16031;SDS011;8120;48.308;8.914;2023-04-06T12:16:45;8.30;;;4.47;;
16031;SDS011;8120;48.308;8.914;2023-04-06T12:19:13;6.00;;;4.07;;
16031;SDS011;8120;48.308;8.914;2023-04-06T12:21:41;7.37;;;4.80;;
16031;SDS011;8120;48.308;8.914;2023-04-06T12:24:09;8.63;;;4.60;;
16031;SDS011;8120;48.308;8.914;2023-04-06T12:26:38;7.03;;;4.73;;
16031;SDS011;8120;48.308;8.914;2023-04-06T12:29:07;9.43;;;5.37;;
16031;SDS011;8120;48.308;8.914;2023-04-06T12:31:35;5.53;;;4.00;;
16031;SDS011;8120;48.308;8.914;2023-04-06T12:34:05;7.70;;;4.90;;
16031;SDS011;8120;48.308;8.914;2023-04-06T12:36:33;8.33;;;4.50;;
16031;SDS011;8120;48.308;8.914;2023-04-06T12:39:01;8.23;;;5.00;;
16031;SDS011;8120;48.308;8.914;2023-04-06T12:41:29;8.20;;;4.27;;
16031;SDS011;8120;48.308;8.914;2023-04-06T12:43:58;7.60;;;4.57;;
16031;SDS011;8120;48.308;8.914;2023-04-06T12:46:26;5.77;;;3.90;;
16031;SDS011;8120;48.308;8.914;2023-04-06T12:48:56;7.50;;;4.33;;
16031;SDS011;8120;48.308;8.914;2023-04-06T12:51:27;8.90;;;4.67;;
16031;SDS011;8120;48.308;8.914;2023-04-06T12:53:55;6.53;;;4.20;;
16031;SDS011;8120;48.308;8.914;2023-04-06T12:56:22;7.93;;;4.30;;
16031;SDS011;8120;48.308;8.914;2023-04-06T12:58:51;6.03;;;4.17;;
16031;SDS011;8120;48.308;8.914;2023-04-06T13:01:20;6.50;;;4.37;;
16031;SDS011;8120;48.308;8.914;2023-04-06T13:03:49;5.47;;;3.77;;
16031;SDS011;8120;48.308;8.914;2023-04-06T13:06:17;6.30;;;3.90;;
16031;SDS011;8120;48.308;8.914;2023-04-06T13:08:45;5.70;;;3.37;;
16031;SDS011;8120;48.308;8.914;2023-04-06T13:11:16;5.60;;;3.83;;
16031;SDS011;8120;48.308;8.914;2023-04-06T13:13:44;5.30;;;3.43;;
16031;SDS011;8120;48.308;8.914;2023-04-06T13:16:12;8.13;;;4.80;;
16031;SDS011;8120;48.308;8.914;2023-04-06T13:18:42;9.17;;;7.13;;
16031;SDS011;8120;48.308;8.914;2023-04-06T13:21:13;8.60;;;6.50;;
16031;SDS011;8120;48.308;8.914;2023-04-06T13:23:42;7.17;;;4.30;;
16031;SDS011;8120;48.308;8.914;2023-04-06T13:26:10;7.37;;;4.93;;
16031;SDS011;8120;48.308;8.914;2023-04-06T13:28:39;6.23;;;3.70;;
16031;SDS011;8120;48.308;8.914;2023-04-06T13:31:08;5.37;;;3.27;;
16031;SDS011;8120;48.308;8.914;2023-04-06T13:33:36;5.87;;;3.37;;
16031;SDS011;8120;48.308;8.914;2023-04-06T13:36:06;6.67;;;3.47;;
16031;SDS011;8120;48.308;8.914;2023-04-06T13:38:34;5.57;;;3.20;;
16031;SDS011;8120;48.308;8.914;2023-04-06T13:41:05;4.93;;;3.40;;
16031;SDS011;8120;48.308;8.914;2023-04-06T13:43:32;4.90;;;3.33;;
16031;SDS011;8120;48.308;8.914;2023-04-06T13:46:01;8.23;;;3.67;;
16031;SDS011;8120;48.308;8.914;2023-04-06T13:48:28;6.60;;;3.80;;
16031;SDS011;8120;48.308;8.914;2023-04-06T13:50:57;5.30;;;3.73;;
16031;SDS011;8120;48.308;8.914;2023-04-06T13:53:26;8.30;;;4.43;;
16031;SDS011;8120;48.308;8.914;2023-04-06T13:55:54;6.90;;;4.43;;
16031;SDS011;8120;48.308;8.914;2023-04-06T13:58:22;6.67;;;4.40;;
16031;SDS011;8120;48.308;8.914;2023-04-06T14:00:50;6.23;;;4.03;;
16031;SDS011;8120;48.308;8.914;2023-04-06T14:03:19;5.90;;;3.83;;
16031;SDS011;8120;48.308;8.914;2023-04-06T14:05:47;7.93;;;4.70;;
16031;SDS011;8120;48.308;8.914;2023-04-06T14:08:15;7.03;;;3.97;;
16031;SDS011;8120;48.308;8.914;2023-04-06T14:10:44;5.87;;;3.73;;
16031;SDS011;8120;48.308;8.914;2023-04-06T14:13:12;8.57;;;3.33;;
16031;SDS011;8120;48.308;8.914;2023-04-06T14:15:40;5.93;;;3.50;;
16031;SDS011;8120;48.308;8.914;2023-04-06T14:18:08;7.17;;;3.73;;
16031;SDS011;8120;48.308;8.914;2023-04-06T14:20:36;4.87;;;3.20;;
16031;SDS011;8120;48.308;8.914;2023-04-06T14:23:04;6.27;;;3.53;;
16031;SDS011;8120;48.308;8.914;2023-04-06T14:25:32;5.73;;;3.17;;
16031;SDS011;8120;48.308;8.914;2023-04-06T14:28:02;6.43;;;3.50;;
16031;SDS011;8120;48.308;8.914;2023-04-06T14:30:30;5.70;;;3.97;;
16031;SDS011;8120;48.308;8.914;2023-04-06T14:32:58;4.23;;;3.07;;
16031;SDS011;8120;48.308;8.914;2023-04-06T14:35:26;5.70;;;3.40;;
16031;SDS011;8120;48.308;8.914;2023-04-06T14:37:55;6.33;;;3.40;;
16031;SDS011;8120;48.308;8.914;2023-04-06T14:40:24;4.10;;;2.70;;
16031;SDS011;8120;48.308;8.914;2023-04-06T14:42:52;5.53;;;3.50;;
16031;SDS011;8120;48.308;8.914;2023-04-06T14:45:23;5.13;;;3.20;;
16031;SDS011;8120;48.308;8.914;2023-04-06T14:47:51;5.47;;;3.40;;
16031;SDS011;8120;48.308;8.914;2023-04-06T14:50:19;6.00;;;3.33;;
16031;SDS011;8120;48.308;8.914;2023-04-06T14:52:46;4.80;;;2.90;;
16031;SDS011;8120;48.308;8.914;2023-04-06T14:55:14;9.50;;;3.43;;
16031;SDS011;8120;48.308;8.914;2023-04-06T14:57:42;4.57;;;2.97;;
16031;SDS011;8120;48.308;8.914;2023-04-06T15:00:11;5.40;;;3.03;;
16031;SDS011;8120;48.308;8.914;2023-04-06T15:02:41;5.17;;;2.93;;
16031;SDS011;8120;48.308;8.914;2023-04-06T15:05:09;4.93;;;3.03;;